Time;durP1;ratioP1;P1;durP2;ratioP2;P2;SDS_P1;SDS_P2;PMS_P1;PMS_P2;Temp;Humidity;BMP_temperature;BMP_pressure;BME280_temperature;BME280_humidity;BME280_pressure;Samples;Min_cycle;Max_cycle;Signal;HPM_P1;HPM_P2
2023/09/02 00:00:08;;;;;;;14.43;8.90;;;15.90;99.90;;;;;;5035001;28;20491;-76
2023/09/02 00:02:33;;;;;;;12.10;9.05;;;15.90;99.90;;;;;;5036963;28;20407;-77
2023/09/02 00:04:59;;;;;;;15.50;9.55;;;15.80;99.90;;;;;;5035450;28;20383;-77
2023/09/02 00:07:24;;;;;;;16.27;9.37;;;15.80;99.90;;;;;;5036986;28;20394;-76
2023/09/02 00:09:50;;;;;;;13.73;9.77;;;15.80;99.90;;;;;;5037552;28;20383;-77
2023/09/02 00:12:16;;;;;;;15.00;9.40;;;15.80;99.90;;;;;;5038175;28;20425;-77
2023/09/02 00:14:41;;;;;;;15.30;10.00;;;15.80;99.90;;;;;;5035072;28;20972;-78
2023/09/02 00:17:07;;;;;;;12.83;9.80;;;15.80;99.90;;;;;;5040880;28;20513;-77
2023/09/02 00:19:33;;;;;;;15.10;9.63;;;15.80;99.90;;;;;;5038947;28;20417;-76
2023/09/02 00:21:58;;;;;;;16.70;10.63;;;15.80;99.90;;;;;;5036918;28;20388;-76
2023/09/02 00:24:24;;;;;;;14.40;10.50;;;15.70;99.90;;;;;;5034909;28;20383;-77
2023/09/02 00:26:49;;;;;;;16.60;10.30;;;15.70;99.90;;;;;;5033462;28;20379;-76
2023/09/02 00:29:15;;;;;;;17.93;10.10;;;15.70;99.90;;;;;;5033225;28;20391;-77
2023/09/02 00:31:40;;;;;;;15.23;9.87;;;15.80;99.90;;;;;;5033860;28;20572;-76
2023/09/02 00:34:06;;;;;;;16.15;11.20;;;15.70;99.90;;;;;;5035706;28;20391;-76
2023/09/02 00:36:32;;;;;;;17.60;10.60;;;15.70;99.90;;;;;;5041577;28;20430;-78
2023/09/02 00:38:59;;;;;;;16.90;10.70;;;15.70;99.90;;;;;;5046983;28;20801;-77
2023/09/02 00:41:35;;;;;;;16.77;10.60;;;15.80;99.90;;;;;;5046479;28;20730;-77
2023/09/02 00:44:02;;;;;;;16.08;11.13;;;15.80;99.90;;;;;;5043065;28;20459;-76
2023/09/02 00:46:28;;;;;;;15.17;10.13;;;15.80;99.90;;;;;;5042979;28;20471;-77
2023/09/02 00:48:54;;;;;;;16.77;10.73;;;15.90;99.90;;;;;;5043173;28;20403;-77
2023/09/02 00:51:20;;;;;;;17.17;10.63;;;15.90;99.90;;;;;;5039703;28;20480;-77
2023/09/02 00:53:45;;;;;;;16.97;10.60;;;15.90;99.90;;;;;;5034249;28;20391;-76
2023/09/02 00:56:12;;;;;;;17.07;10.43;;;15.90;99.90;;;;;;5033269;28;20387;-76
2023/09/02 00:58:38;;;;;;;16.38;11.27;;;15.90;99.90;;;;;;5033358;28;20816;-77
2023/09/02 01:01:04;;;;;;;17.15;10.60;;;16.00;99.90;;;;;;5033121;28;20422;-76
2023/09/02 01:03:29;;;;;;;16.88;10.95;;;16.00;99.90;;;;;;5034797;28;20402;-77
2023/09/02 01:05:55;;;;;;;15.90;11.02;;;16.00;99.90;;;;;;5040081;28;20391;-77
2023/09/02 01:08:21;;;;;;;17.30;10.80;;;16.00;99.90;;;;;;5048943;28;20383;-77
2023/09/02 01:10:47;;;;;;;16.08;10.73;;;16.00;99.90;;;;;;5046141;28;20394;-77
2023/09/02 01:13:13;;;;;;;14.98;10.80;;;16.10;99.90;;;;;;5038192;28;20406;-76
2023/09/02 01:15:39;;;;;;;13.10;10.30;;;16.10;99.90;;;;;;5039998;28;20386;-76
2023/09/02 01:18:05;;;;;;;15.23;10.47;;;16.20;99.90;;;;;;5035593;28;20403;-77
2023/09/02 01:21:09;;;;;;;16.10;11.07;;;16.20;99.90;;;;;;5041383;28;20386;-77
2023/09/02 01:23:52;;;;;;;11.90;9.70;;;16.20;99.90;;;;;;5039436;28;20878;-78
2023/09/02 01:26:57;;;;;;;13.77;9.80;;;16.20;99.90;;;;;;5036193;28;20390;-77
2023/09/02 01:29:27;;;;;;;14.45;9.10;;;16.30;99.90;;;;;;5037953;28;20371;-77
2023/09/02 01:31:54;;;;;;;12.40;9.18;;;16.30;99.90;;;;;;5035942;28;20471;-76
2023/09/02 01:34:21;;;;;;;12.52;9.70;;;16.20;99.90;;;;;;5034087;28;20449;-77
2023/09/02 01:36:51;;;;;;;12.30;9.23;;;16.20;99.90;;;;;;5037078;28;20819;-77
2023/09/02 01:39:19;;;;;;;15.05;10.10;;;16.20;99.90;;;;;;5038872;28;20391;-76
2023/09/02 01:41:46;;;;;;;13.02;9.50;;;16.10;99.90;;;;;;5038074;28;20387;-78
2023/09/02 01:44:13;;;;;;;13.60;10.17;;;16.10;99.90;;;;;;5036958;28;20745;-77
2023/09/02 01:46:39;;;;;;;12.77;10.02;;;16.10;99.90;;;;;;5041720;28;20383;-77
2023/09/02 01:49:04;;;;;;;21.37;14.57;;;16.10;99.90;;;;;;5041309;28;20392;-78
2023/09/02 01:51:31;;;;;;;15.40;10.00;;;16.00;99.90;;;;;;5044245;28;20398;-77
2023/09/02 01:53:57;;;;;;;13.80;9.65;;;16.00;99.90;;;;;;5039047;28;20394;-78
2023/09/02 01:56:23;;;;;;;12.20;9.88;;;16.00;99.90;;;;;;5037573;28;20422;-77
2023/09/02 01:58:49;;;;;;;13.48;10.10;;;15.90;99.90;;;;;;5035681;28;20375;-77
2023/09/02 02:01:15;;;;;;;15.65;10.60;;;15.90;99.90;;;;;;5039949;28;20395;-77
2023/09/02 02:03:57;;;;;;;13.83;10.60;;;15.80;99.90;;;;;;5039234;28;20418;-77
2023/09/02 02:06:24;;;;;;;13.98;10.73;;;15.80;99.90;;;;;;5036907;28;21241;-77
2023/09/02 02:09:00;;;;;;;15.60;10.77;;;15.70;99.90;;;;;;5032691;28;20388;-77
2023/09/02 02:11:28;;;;;;;15.68;10.68;;;15.60;99.90;;;;;;5032640;28;20387;-77
2023/09/02 02:14:01;;;;;;;13.23;10.15;;;15.60;99.90;;;;;;5032963;28;20902;-77
2023/09/02 02:16:26;;;;;;;19.30;12.00;;;15.50;99.90;;;;;;5032323;28;20410;-77
2023/09/02 02:18:52;;;;;;;17.17;11.70;;;15.50;99.90;;;;;;5033161;28;20394;-77
2023/09/02 02:21:18;;;;;;;18.67;11.30;;;15.50;99.90;;;;;;5032161;28;20426;-77
2023/09/02 02:23:43;;;;;;;17.55;11.00;;;15.60;99.90;;;;;;5032360;28;20383;-78
2023/09/02 02:26:09;;;;;;;14.80;11.00;;;15.60;99.90;;;;;;5033299;28;20378;-77
2023/09/02 02:28:36;;;;;;;18.50;11.20;;;15.50;99.90;;;;;;5032739;28;20948;-77
2023/09/02 02:31:02;;;;;;;16.73;11.50;;;15.50;99.90;;;;;;5030813;28;20445;-77
2023/09/02 02:33:28;;;;;;;18.83;11.57;;;15.50;99.90;;;;;;5032270;28;20792;-77
2023/09/02 02:35:54;;;;;;;18.93;11.10;;;15.50;99.90;;;;;;5032388;28;20429;-77
2023/09/02 02:38:20;;;;;;;14.70;11.50;;;15.50;99.90;;;;;;5032919;28;20835;-76
2023/09/02 02:40:45;;;;;;;18.00;11.20;;;15.50;99.90;;;;;;5033048;28;20474;-78
2023/09/02 02:43:11;;;;;;;19.00;12.10;;;15.50;99.90;;;;;;5034314;28;20388;-78
2023/09/02 02:45:37;;;;;;;18.50;11.15;;;15.50;99.90;;;;;;5032855;28;20426;-77
2023/09/02 02:48:02;;;;;;;20.08;11.55;;;15.40;99.90;;;;;;5031459;28;20379;-77
2023/09/02 02:50:28;;;;;;;16.98;12.02;;;15.40;99.90;;;;;;5032004;28;20749;-77
2023/09/02 02:52:54;;;;;;;17.00;11.73;;;15.40;99.90;;;;;;5033076;28;20470;-77
2023/09/02 02:55:19;;;;;;;19.43;12.20;;;15.40;99.90;;;;;;5033008;28;20592;-77
2023/09/02 02:57:45;;;;;;;16.63;11.80;;;15.40;99.90;;;;;;5037417;28;20407;-78
2023/09/02 03:00:11;;;;;;;17.00;12.38;;;15.40;99.90;;;;;;5034861;28;20399;-77
2023/09/02 03:02:37;;;;;;;19.38;12.15;;;15.40;99.90;;;;;;5032933;28;20383;-77
2023/09/02 03:05:03;;;;;;;20.50;12.45;;;15.30;99.90;;;;;;5032316;28;20383;-77
2023/09/02 03:07:28;;;;;;;17.77;12.10;;;15.40;99.90;;;;;;5032649;28;20383;-78
2023/09/02 03:09:54;;;;;;;16.90;12.23;;;15.40;99.90;;;;;;5033418;28;20472;-78
2023/09/02 03:12:20;;;;;;;17.90;12.60;;;15.40;99.90;;;;;;5033063;28;20775;-77
2023/09/02 03:14:48;;;;;;;17.13;11.63;;;15.40;99.90;;;;;;5032588;28;20390;-77
2023/09/02 03:17:20;;;;;;;17.95;11.75;;;15.50;99.90;;;;;;5029514;28;20930;-76
2023/09/02 03:19:46;;;;;;;20.52;12.15;;;15.50;99.90;;;;;;5030530;28;20394;-76
2023/09/02 03:22:12;;;;;;;19.80;12.93;;;15.60;99.90;;;;;;5030851;28;20892;-76
2023/09/02 03:24:37;;;;;;;16.03;11.77;;;15.60;99.90;;;;;;5032825;28;20390;-77
2023/09/02 03:27:03;;;;;;;16.23;10.40;;;15.60;99.90;;;;;;5034229;28;20379;-76
2023/09/02 03:29:29;;;;;;;17.40;10.70;;;15.60;99.90;;;;;;5033921;28;20399;-76
2023/09/02 03:31:55;;;;;;;15.93;11.27;;;15.70;99.90;;;;;;5032913;28;20402;-76
2023/09/02 03:34:20;;;;;;;15.87;10.50;;;15.70;99.90;;;;;;5034150;28;20395;-76
2023/09/02 03:36:46;;;;;;;13.00;9.70;;;15.70;99.90;;;;;;5033574;28;20892;-76
2023/09/02 03:39:11;;;;;;;16.17;10.70;;;15.70;99.90;;;;;;5033987;28;20387;-77
2023/09/02 03:41:37;;;;;;;14.63;10.17;;;15.80;99.90;;;;;;5039523;28;20387;-77
2023/09/02 03:44:04;;;;;;;14.32;10.50;;;15.70;99.90;;;;;;5036445;28;20411;-76
2023/09/02 03:46:29;;;;;;;17.17;9.93;;;15.60;99.90;;;;;;5038271;28;20407;-76
2023/09/02 03:48:55;;;;;;;13.05;9.43;;;15.70;99.90;;;;;;5036048;28;20394;-76
2023/09/02 03:51:21;;;;;;;13.35;9.25;;;15.60;99.90;;;;;;5033303;28;20884;-74
2023/09/02 03:53:46;;;;;;;14.90;9.90;;;15.70;99.90;;;;;;5034376;28;20748;-79
2023/09/02 03:56:12;;;;;;;15.50;10.47;;;15.70;99.90;;;;;;5034071;28;20428;-78
2023/09/02 03:58:38;;;;;;;13.13;9.93;;;15.70;99.90;;;;;;5033760;28;20427;-78
2023/09/02 04:01:04;;;;;;;15.65;9.98;;;15.70;99.90;;;;;;5032340;28;20411;-78
2023/09/02 04:03:35;;;;;;;15.40;10.68;;;15.70;99.90;;;;;;5034208;28;20401;-77
2023/09/02 04:06:01;;;;;;;16.27;11.23;;;15.60;99.90;;;;;;5034193;28;20434;-73
2023/09/02 04:08:27;;;;;;;15.13;10.55;;;15.60;99.90;;;;;;5035586;28;20379;-78
2023/09/02 04:10:56;;;;;;;17.52;10.80;;;15.50;99.90;;;;;;5030670;28;20397;-77
2023/09/02 04:13:26;;;;;;;20.15;11.20;;;15.50;99.90;;;;;;5014047;28;20396;-77
2023/09/02 04:16:00;;;;;;;19.73;13.00;;;15.50;99.90;;;;;;5013827;28;20408;-77
2023/09/02 04:18:26;;;;;;;21.40;12.70;;;15.40;99.90;;;;;;5015754;28;20423;-75
2023/09/02 04:20:52;;;;;;;21.33;12.57;;;15.30;99.90;;;;;;5015311;28;20862;-76
2023/09/02 04:23:18;;;;;;;19.45;13.02;;;15.20;99.90;;;;;;5015309;28;20380;-75
2023/09/02 04:25:49;;;;;;;19.50;12.60;;;15.20;99.90;;;;;;5015558;28;20377;-75
2023/09/02 04:28:15;;;;;;;20.08;12.85;;;15.20;99.90;;;;;;5013929;28;20376;-77
2023/09/02 04:30:41;;;;;;;18.95;12.43;;;15.10;99.90;;;;;;5013600;28;20399;-77
2023/09/02 04:33:06;;;;;;;18.70;12.67;;;15.10;99.90;;;;;;5014011;28;20782;-76
2023/09/02 04:35:42;;;;;;;19.27;12.17;;;15.20;99.90;;;;;;5013851;28;20395;-76
2023/09/02 04:38:08;;;;;;;21.30;12.80;;;15.10;99.90;;;;;;5013507;28;20444;-77
2023/09/02 04:40:37;;;;;;;21.30;13.60;;;15.00;99.90;;;;;;5015035;28;20467;-78
2023/09/02 04:43:04;;;;;;;19.85;12.70;;;15.00;99.90;;;;;;5014810;28;20904;-77
2023/09/02 04:45:34;;;;;;;18.10;11.95;;;15.00;99.90;;;;;;5015507;28;20392;-77
2023/09/02 04:48:04;;;;;;;25.90;12.35;;;14.90;99.90;;;;;;5015839;28;20906;-77
2023/09/02 04:50:32;;;;;;;22.57;13.03;;;14.90;99.90;;;;;;5015611;28;20420;-77
2023/09/02 04:52:58;;;;;;;22.38;13.73;;;14.90;99.90;;;;;;5015228;28;20389;-76
2023/09/02 04:55:25;;;;;;;19.92;12.32;;;15.00;99.90;;;;;;5016310;28;20384;-77
2023/09/02 04:57:57;;;;;;;18.20;12.52;;;15.00;99.90;;;;;;5021381;28;20439;-76
2023/09/02 05:00:24;;;;;;;21.63;12.07;;;15.00;99.90;;;;;;5019053;28;20439;-76
2023/09/02 05:02:50;;;;;;;20.25;12.50;;;15.10;99.90;;;;;;5019139;28;20447;-77
2023/09/02 05:05:19;;;;;;;18.58;12.07;;;15.10;99.90;;;;;;5017012;28;20392;-77
2023/09/02 05:07:45;;;;;;;19.92;12.13;;;15.10;99.90;;;;;;5017877;28;20396;-77
2023/09/02 05:10:12;;;;;;;20.15;12.25;;;15.20;99.90;;;;;;5014001;28;20409;-77
2023/09/02 05:12:38;;;;;;;20.80;12.30;;;15.20;99.90;;;;;;5013583;28;20396;-77
2023/09/02 05:15:04;;;;;;;18.52;12.65;;;15.20;99.90;;;;;;5013663;28;20385;-77
2023/09/02 05:17:32;;;;;;;21.33;12.85;;;15.20;99.90;;;;;;5013299;28;20475;-76
2023/09/02 05:19:58;;;;;;;19.40;12.10;;;15.20;99.90;;;;;;5013443;28;20389;-77
2023/09/02 05:22:23;;;;;;;19.52;12.60;;;15.20;99.90;;;;;;5012802;28;20407;-73
2023/09/02 05:24:49;;;;;;;20.40;12.35;;;15.20;99.90;;;;;;5013651;28;20838;-75
2023/09/02 05:27:14;;;;;;;15.65;11.20;;;15.30;99.90;;;;;;5011747;28;20401;-75
2023/09/02 05:29:40;;;;;;;17.43;11.77;;;15.30;99.90;;;;;;5013076;28;20385;-75
2023/09/02 05:32:08;;;;;;;15.60;10.77;;;15.40;99.90;;;;;;5014054;28;20731;-74
2023/09/02 05:34:33;;;;;;;15.90;11.25;;;15.40;99.90;;;;;;5020680;28;20380;-75
2023/09/02 05:36:59;;;;;;;17.13;11.05;;;15.40;99.90;;;;;;5024398;28;20755;-74
2023/09/02 05:39:25;;;;;;;16.45;10.43;;;15.50;99.90;;;;;;5018975;28;20896;-77
2023/09/02 05:41:51;;;;;;;17.25;11.40;;;15.60;99.90;;;;;;5021963;28;20435;-76
2023/09/02 05:44:16;;;;;;;22.85;10.98;;;15.70;99.90;;;;;;5016072;28;20397;-76
2023/09/02 05:46:42;;;;;;;17.73;11.23;;;15.80;99.90;;;;;;5018504;28;20885;-76
2023/09/02 05:49:08;;;;;;;16.27;9.30;;;15.90;99.90;;;;;;5018099;28;20458;-76
2023/09/02 05:51:33;;;;;;;17.33;9.82;;;16.00;99.90;;;;;;5012679;28;20472;-75
2023/09/02 05:53:59;;;;;;;13.47;9.03;;;16.10;99.90;;;;;;5012772;28;20425;-75
2023/09/02 05:56:25;;;;;;;11.50;8.10;;;16.20;99.90;;;;;;5011924;28;20746;-76
2023/09/02 05:58:50;;;;;;;12.80;8.95;;;16.30;99.90;;;;;;5011401;28;20450;-75
2023/09/02 06:01:16;;;;;;;11.32;8.23;;;16.40;99.90;;;;;;5011313;28;20971;-76
2023/09/02 06:03:42;;;;;;;10.00;7.97;;;16.60;99.90;;;;;;5012041;28;21096;-76
2023/09/02 06:06:13;;;;;;;8.67;7.20;;;16.60;99.90;;;;;;5011984;28;20475;-74
2023/09/02 06:08:39;;;;;;;13.23;7.93;;;16.70;99.90;;;;;;5011380;28;20384;-75
2023/09/02 06:11:05;;;;;;;9.65;7.20;;;16.80;99.90;;;;;;5017340;28;20385;-76
2023/09/02 06:13:31;;;;;;;10.63;6.97;;;16.90;99.90;;;;;;5019396;28;20391;-76
2023/09/02 06:15:59;;;;;;;11.90;7.82;;;16.90;99.90;;;;;;5018632;28;20381;-77
2023/09/02 06:18:24;;;;;;;9.23;6.40;;;17.00;99.90;;;;;;5017811;28;20404;-76
2023/09/02 06:20:50;;;;;;;12.13;6.50;;;17.10;97.20;;;;;;5013899;28;20746;-75
2023/09/02 06:23:16;;;;;;;10.67;7.10;;;17.10;94.70;;;;;;5013968;28;20874;-75
2023/09/02 06:25:41;;;;;;;8.52;6.50;;;17.20;94.80;;;;;;5013408;28;20381;-76
2023/09/02 06:28:08;;;;;;;9.03;7.00;;;17.20;93.80;;;;;;5011262;28;20446;-76
2023/09/02 06:30:36;;;;;;;9.32;6.85;;;17.30;92.10;;;;;;5013250;28;20707;-75
2023/09/02 06:33:03;;;;;;;10.65;6.28;;;17.30;92.40;;;;;;5012891;28;20393;-75
2023/09/02 06:35:31;;;;;;;7.68;5.80;;;17.40;91.80;;;;;;5020466;28;20400;-77
2023/09/02 06:37:57;;;;;;;9.45;6.30;;;17.50;89.20;;;;;;5017027;28;20401;-76
2023/09/02 06:40:22;;;;;;;9.90;6.60;;;17.60;87.80;;;;;;5018930;28;20778;-77
2023/09/02 06:42:48;;;;;;;7.87;5.80;;;17.60;86.30;;;;;;5013056;28;20411;-76
2023/09/02 06:45:13;;;;;;;8.68;6.40;;;17.70;85.00;;;;;;5013384;28;20383;-76
2023/09/02 06:47:39;;;;;;;8.13;5.93;;;17.80;84.20;;;;;;5012145;28;20480;-76
2023/09/02 06:50:05;;;;;;;8.00;5.67;;;17.90;84.50;;;;;;5012222;28;20438;-77
2023/09/02 06:52:30;;;;;;;8.25;5.93;;;18.00;79.10;;;;;;5015930;28;20396;-77
2023/09/02 06:54:56;;;;;;;5.25;4.75;;;18.10;77.00;;;;;;5011671;28;20385;-76
2023/09/02 06:57:22;;;;;;;7.05;4.90;;;18.20;75.50;;;;;;5011605;28;20436;-78
2023/09/02 06:59:47;;;;;;;5.07;4.40;;;18.30;74.60;;;;;;5011446;28;20541;-76
2023/09/02 07:02:13;;;;;;;8.55;5.00;;;18.40;71.90;;;;;;5011024;28;20408;-77
2023/09/02 07:04:38;;;;;;;5.20;4.68;;;18.40;70.70;;;;;;5011474;28;20388;-76
2023/09/02 07:07:04;;;;;;;8.50;5.00;;;18.40;69.70;;;;;;5011787;28;20472;-76
2023/09/02 07:09:29;;;;;;;7.60;4.40;;;18.50;70.80;;;;;;5012362;28;20393;-76
2023/09/02 07:11:55;;;;;;;6.10;3.90;;;18.60;69.00;;;;;;5011941;28;20749;-76
2023/09/02 07:14:21;;;;;;;5.80;4.10;;;18.80;66.10;;;;;;5012831;28;20449;-77
2023/09/02 07:16:46;;;;;;;9.38;4.60;;;18.80;64.60;;;;;;5017015;28;20459;-79
2023/09/02 07:19:12;;;;;;;5.20;4.00;;;18.80;65.60;;;;;;5019112;28;20411;-77
2023/09/02 07:21:38;;;;;;;7.27;3.90;;;19.00;64.70;;;;;;5014846;28;20412;-76
2023/09/02 07:24:03;;;;;;;5.27;4.07;;;19.00;63.40;;;;;;5014332;28;20888;-76
2023/09/02 07:26:32;;;;;;;6.47;4.70;;;19.00;62.40;;;;;;5015903;28;20773;-74
2023/09/02 07:28:58;;;;;;;6.00;4.50;;;19.10;62.10;;;;;;5014960;28;20395;-77
2023/09/02 07:31:24;;;;;;;6.47;3.90;;;19.20;61.30;;;;;;5015838;28;20381;-77
2023/09/02 07:33:50;;;;;;;5.40;4.22;;;19.30;60.30;;;;;;5017225;28;20381;-77
2023/09/02 07:36:16;;;;;;;4.60;3.78;;;19.40;59.00;;;;;;5022347;28;20389;-77
2023/09/02 07:38:42;;;;;;;7.43;4.40;;;19.60;57.40;;;;;;5024769;28;20392;-77
2023/09/02 07:41:09;;;;;;;5.33;4.43;;;19.60;57.90;;;;;;5025239;28;20797;-76
2023/09/02 07:43:35;;;;;;;6.93;4.20;;;19.70;56.90;;;;;;5022152;28;20770;-76
2023/09/02 07:46:00;;;;;;;5.90;4.50;;;19.70;56.70;;;;;;5017202;28;20389;-78
2023/09/02 07:48:26;;;;;;;5.83;3.70;;;19.70;57.60;;;;;;5015889;28;20392;-78
2023/09/02 07:50:52;;;;;;;3.97;3.60;;;19.70;57.20;;;;;;5016844;28;20396;-77
2023/09/02 07:53:17;;;;;;;5.75;4.60;;;19.60;57.80;;;;;;5015702;28;20757;-76
2023/09/02 07:55:43;;;;;;;4.90;3.40;;;19.50;58.50;;;;;;5016646;28;20381;-78
2023/09/02 07:58:08;;;;;;;4.10;3.25;;;19.60;58.10;;;;;;5014541;28;20401;-76
2023/09/02 08:00:35;;;;;;;4.70;3.20;;;19.60;57.10;;;;;;5014966;28;20407;-76
2023/09/02 08:03:01;;;;;;;5.30;3.33;;;19.70;55.40;;;;;;5014778;28;20396;-76
2023/09/02 08:05:26;;;;;;;5.53;3.47;;;19.80;55.90;;;;;;5025100;28;20448;-77
2023/09/02 08:07:52;;;;;;;4.40;3.30;;;19.90;55.80;;;;;;5016883;28;20403;-77
2023/09/02 08:10:17;;;;;;;4.40;3.60;;;20.00;55.40;;;;;;5019660;28;20400;-78
2023/09/02 08:12:43;;;;;;;4.73;3.40;;;20.30;54.60;;;;;;5020434;28;20389;-76
2023/09/02 08:15:12;;;;;;;6.13;3.65;;;20.40;53.00;;;;;;5019479;28;20868;-77
2023/09/02 08:17:41;;;;;;;7.05;3.22;;;20.60;50.80;;;;;;5019818;28;20415;-76
2023/09/02 08:20:08;;;;;;;5.03;3.40;;;20.70;50.00;;;;;;5020077;28;20384;-77
2023/09/02 08:22:36;;;;;;;4.05;3.60;;;20.80;49.60;;;;;;5031141;28;20390;-79
2023/09/02 08:25:02;;;;;;;4.47;3.55;;;20.90;49.20;;;;;;5036589;28;20817;-78
2023/09/02 08:27:28;;;;;;;4.10;3.70;;;20.90;48.80;;;;;;5035105;28;20403;-76
2023/09/02 08:29:54;;;;;;;5.03;3.60;;;21.10;48.90;;;;;;5032070;28;20449;-74
2023/09/02 08:32:19;;;;;;;3.50;3.13;;;21.30;47.20;;;;;;5034003;28;20395;-79
2023/09/02 08:34:45;;;;;;;5.53;3.63;;;21.30;47.30;;;;;;5038424;28;20474;-79
2023/09/02 08:37:10;;;;;;;7.05;3.30;;;21.50;45.60;;;;;;5037288;28;20427;-76
2023/09/02 08:39:36;;;;;;;3.60;3.27;;;21.50;45.40;;;;;;5038947;28;20391;-77
2023/09/02 08:42:02;;;;;;;3.83;3.40;;;21.50;45.00;;;;;;5035938;28;20635;-76
2023/09/02 08:44:28;;;;;;;6.10;3.45;;;21.70;45.30;;;;;;5034044;28;20406;-77
2023/09/02 08:46:54;;;;;;;3.90;3.00;;;21.70;44.70;;;;;;5034060;28;20409;-76
2023/09/02 08:49:20;;;;;;;7.13;3.50;;;21.80;44.60;;;;;;5033656;28;20460;-77
2023/09/02 08:51:46;;;;;;;4.03;2.85;;;21.90;43.90;;;;;;5035291;28;20787;-78
2023/09/02 08:54:14;;;;;;;3.40;2.80;;;22.10;43.30;;;;;;5033857;28;20827;-76
2023/09/02 08:56:41;;;;;;;5.45;3.00;;;22.20;42.10;;;;;;5032350;28;20417;-75
2023/09/02 08:59:09;;;;;;;3.60;2.67;;;22.50;42.00;;;;;;5032450;28;20383;-79
2023/09/02 09:01:43;;;;;;;4.20;2.43;;;22.80;40.30;;;;;;5031452;28;20410;-75
2023/09/02 09:04:10;;;;;;;3.93;2.80;;;23.00;39.50;;;;;;5031766;28;20744;-76
2023/09/02 09:06:37;;;;;;;5.65;2.83;;;23.00;39.60;;;;;;5031822;28;20387;-75
2023/09/02 09:09:03;;;;;;;4.15;2.30;;;23.20;39.20;;;;;;5031356;28;20399;-75
2023/09/02 09:11:35;;;;;;;5.00;2.80;;;23.20;38.70;;;;;;5030693;28;20899;-75
2023/09/02 09:14:02;;;;;;;5.40;2.80;;;23.20;37.70;;;;;;5031777;28;20887;-73
2023/09/02 09:16:33;;;;;;;7.30;3.00;;;23.20;38.00;;;;;;5032244;28;20434;-74
2023/09/02 09:19:01;;;;;;;2.47;2.28;;;23.30;38.30;;;;;;5031546;28;20383;-75
2023/09/02 09:21:27;;;;;;;3.42;2.10;;;23.20;38.50;;;;;;5031166;28;20386;-73
2023/09/02 09:23:52;;;;;;;3.47;2.30;;;23.20;38.40;;;;;;5031627;28;20891;-74
2023/09/02 09:26:19;;;;;;;3.53;2.40;;;23.30;38.60;;;;;;5029315;28;20489;-73
2023/09/02 09:28:58;;;;;;;3.30;2.00;;;23.40;37.80;;;;;;5020141;28;20383;-76
2023/09/02 09:31:25;;;;;;;2.80;2.38;;;23.40;38.00;;;;;;5030427;28;21242;-74
2023/09/02 09:33:58;;;;;;;2.58;2.10;;;23.40;37.70;;;;;;5031687;28;20389;-74
2023/09/02 09:36:24;;;;;;;5.22;2.30;;;23.40;38.00;;;;;;5030885;28;20401;-75
2023/09/02 09:38:54;;;;;;;1.90;1.80;;;23.30;37.60;;;;;;5030577;28;20384;-73
2023/09/02 09:41:20;;;;;;;2.75;2.45;;;23.50;37.10;;;;;;5031491;28;20385;-74
2023/09/02 09:44:11;;;;;;;2.42;2.13;;;23.90;36.30;;;;;;5030672;28;20391;-73
2023/09/02 09:46:51;;;;;;;3.38;2.00;;;23.70;36.10;;;;;;5031124;28;20387;-75
2023/09/02 09:49:28;;;;;;;2.72;2.00;;;23.70;36.30;;;;;;5031654;28;20915;-73
2023/09/02 09:51:59;;;;;;;2.90;1.83;;;23.70;35.90;;;;;;5031099;28;20391;-74
2023/09/02 09:54:40;;;;;;;2.88;2.20;;;23.80;36.00;;;;;;5032109;28;20389;-75
2023/09/02 09:57:10;;;;;;;2.33;2.13;;;24.00;35.50;;;;;;5030568;28;20438;-78
2023/09/02 09:59:36;;;;;;;3.97;2.30;;;24.10;34.90;;;;;;5033778;28;20395;-77
2023/09/02 10:02:04;;;;;;;2.17;1.70;;;24.40;34.30;;;;;;5035527;28;20406;-78
2023/09/02 10:04:30;;;;;;;4.13;1.95;;;24.60;32.90;;;;;;5034066;28;20409;-76
2023/09/02 10:07:03;;;;;;;4.97;1.90;;;24.70;32.30;;;;;;5031163;28;20748;-78
2023/09/02 10:09:45;;;;;;;2.33;2.10;;;25.20;31.30;;;;;;5033632;28;20410;-78
2023/09/02 10:12:12;;;;;;;6.47;2.10;;;25.40;29.80;;;;;;5038330;28;20395;-77
2023/09/02 10:14:42;;;;;;;2.60;1.80;;;25.30;30.80;;;;;;5037581;28;20718;-77
2023/09/02 10:17:09;;;;;;;3.00;1.80;;;25.10;31.70;;;;;;5043586;28;20465;-77
2023/09/02 10:19:35;;;;;;;2.35;1.60;;;25.00;32.60;;;;;;5035445;28;20402;-77
2023/09/02 10:22:05;;;;;;;5.97;1.80;;;25.00;32.70;;;;;;5034276;28;20450;-77
2023/09/02 10:24:39;;;;;;;3.42;1.80;;;24.80;32.50;;;;;;5026956;28;20379;-77
2023/09/02 10:27:17;;;;;;;4.60;2.83;;;24.80;32.50;;;;;;5038302;28;20441;-78
2023/09/02 10:29:43;;;;;;;2.90;1.70;;;24.90;32.70;;;;;;5037117;28;20387;-77
2023/09/02 10:32:12;;;;;;;4.10;1.60;;;25.10;31.60;;;;;;5038569;28;20443;-76
2023/09/02 10:35:04;;;;;;;4.35;1.70;;;25.30;31.60;;;;;;5034280;28;20864;-78
2023/09/02 10:37:55;;;;;;;3.40;1.83;;;25.30;31.00;;;;;;5031907;28;20418;-77
2023/09/02 10:40:23;;;;;;;3.47;1.80;;;25.40;30.60;;;;;;5031964;28;20764;-76
2023/09/02 10:42:51;;;;;;;3.97;2.63;;;25.60;30.20;;;;;;5036640;28;20725;-78
2023/09/02 10:45:18;;;;;;;3.55;1.50;;;25.70;30.20;;;;;;5038102;28;20403;-77
2023/09/02 10:47:48;;;;;;;2.30;1.60;;;25.80;30.10;;;;;;5035237;28;20406;-77
2023/09/02 10:50:16;;;;;;;15.85;11.15;;;26.00;30.20;;;;;;5036872;28;20391;-77
2023/09/02 10:52:42;;;;;;;3.03;1.80;;;26.20;28.90;;;;;;5039742;28;20480;-78
2023/09/02 10:55:09;;;;;;;1.90;1.70;;;26.40;29.10;;;;;;5039852;28;20391;-78
2023/09/02 10:57:49;;;;;;;3.13;1.50;;;26.70;27.10;;;;;;5038336;28;20421;-78
2023/09/02 11:00:25;;;;;;;2.00;1.73;;;27.10;26.30;;;;;;5037579;28;20878;-77
2023/09/02 11:02:53;;;;;;;4.63;2.03;;;27.40;25.50;;;;;;5036276;28;20440;-78
2023/09/02 11:05:20;;;;;;;3.40;2.00;;;27.50;24.50;;;;;;5036482;28;20398;-77
2023/09/02 11:07:46;;;;;;;4.22;2.30;;;27.50;24.60;;;;;;5044695;28;20455;-78
2023/09/02 11:10:11;;;;;;;2.97;1.80;;;27.70;24.80;;;;;;5047178;28;20878;-77
2023/09/02 11:12:57;;;;;;;4.10;1.83;;;27.80;23.20;;;;;;5044607;28;20383;-78
2023/09/02 11:15:23;;;;;;;4.30;1.80;;;27.90;22.20;;;;;;5043582;28;20421;-79
2023/09/02 11:17:49;;;;;;;2.80;1.65;;;27.60;23.20;;;;;;5043763;28;20421;-79
2023/09/02 11:20:25;;;;;;;2.77;1.80;;;27.60;23.60;;;;;;5040163;28;20745;-78
2023/09/02 11:23:04;;;;;;;3.38;2.00;;;27.30;24.30;;;;;;5035064;28;20410;-78
2023/09/02 11:25:41;;;;;;;2.88;2.10;;;26.70;25.00;;;;;;5039111;28;20398;-77
2023/09/02 11:28:26;;;;;;;3.45;2.40;;;26.70;25.40;;;;;;5044638;28;20391;-77
2023/09/02 11:31:16;;;;;;;5.50;2.05;;;26.50;27.10;;;;;;5043242;28;20481;-78
2023/09/02 11:33:47;;;;;;;3.60;2.20;;;26.50;26.60;;;;;;5044018;28;20425;-78
2023/09/02 11:36:17;;;;;;;3.97;1.90;;;26.80;26.30;;;;;;5043137;28;20395;-79
2023/09/02 11:38:43;;;;;;;4.30;1.70;;;27.10;26.30;;;;;;5042305;28;20379;-78
2023/09/02 11:41:18;;;;;;;5.07;1.77;;;27.30;24.10;;;;;;5045691;28;20386;-78
2023/09/02 11:43:44;;;;;;;3.03;1.52;;;27.40;23.30;;;;;;5040996;28;20376;-76
2023/09/02 11:46:10;;;;;;;2.38;1.50;;;27.40;23.90;;;;;;5038709;28;20397;-77
2023/09/02 11:48:35;;;;;;;4.43;1.60;;;27.40;23.20;;;;;;5038973;28;20411;-77
2023/09/02 11:51:01;;;;;;;2.60;1.75;;;27.80;22.90;;;;;;5044343;28;20394;-77
2023/09/02 11:53:31;;;;;;;4.90;1.80;;;27.40;25.00;;;;;;5038979;28;20387;-77
2023/09/02 11:55:57;;;;;;;3.70;1.50;;;27.00;25.10;;;;;;5038374;28;20821;-77
2023/09/02 11:58:23;;;;;;;3.40;1.77;;;26.60;25.30;;;;;;5038011;28;20494;-77
2023/09/02 12:00:49;;;;;;;2.53;1.50;;;26.60;25.50;;;;;;5035591;28;20426;-76
2023/09/02 12:03:22;;;;;;;4.18;2.00;;;26.40;26.00;;;;;;5033274;28;20384;-76
2023/09/02 12:05:52;;;;;;;3.50;2.03;;;26.30;27.00;;;;;;5033760;28;20383;-77
2023/09/02 12:08:18;;;;;;;4.30;2.20;;;25.90;29.50;;;;;;5034057;28;20425;-75
2023/09/02 12:10:47;;;;;;;3.45;1.83;;;25.60;31.10;;;;;;5033542;28;20394;-77
2023/09/02 12:13:14;;;;;;;3.95;2.25;;;25.40;31.30;;;;;;5032955;28;20795;-77
2023/09/02 12:15:40;;;;;;;2.90;1.90;;;25.20;32.80;;;;;;5034798;28;20425;-77
2023/09/02 12:18:06;;;;;;;3.45;2.00;;;25.40;32.90;;;;;;5034919;28;20435;-77
2023/09/02 12:20:32;;;;;;;3.97;1.80;;;25.70;30.20;;;;;;5033786;28;20387;-77
2023/09/02 12:22:57;;;;;;;4.43;2.17;;;25.70;29.80;;;;;;5032987;28;20380;-77
2023/09/02 12:25:24;;;;;;;2.27;1.90;;;25.50;31.60;;;;;;5033942;28;20440;-77
2023/09/02 12:27:51;;;;;;;4.30;2.10;;;25.50;29.80;;;;;;5033053;28;20395;-76
2023/09/02 12:30:27;;;;;;;3.60;2.07;;;25.40;31.20;;;;;;5033806;28;20387;-77
2023/09/02 12:32:56;;;;;;;2.38;1.80;;;25.40;31.40;;;;;;5033926;28;20418;-76
2023/09/02 12:35:21;;;;;;;4.60;2.10;;;25.40;31.10;;;;;;5033032;28;20380;-76
2023/09/02 12:37:59;;;;;;;4.27;2.00;;;25.60;30.20;;;;;;5033215;28;20522;-77
2023/09/02 12:40:25;;;;;;;4.60;2.63;;;25.60;29.70;;;;;;5033926;28;20448;-76